sensor_id;sensor_type;location;lat;lon;timestamp;temperature;humidity
16384;DHT22;8301;51.440;6.610;2023-11-19T00:01:37;11.70;99.90
16384;DHT22;8301;51.440;6.610;2023-11-19T00:04:04;11.70;99.90
16384;DHT22;8301;51.440;6.610;2023-11-19T00:06:31;11.80;99.90
16384;DHT22;8301;51.440;6.610;2023-11-19T00:08:57;11.80;99.90
16384;DHT22;8301;51.440;6.610;2023-11-19T00:11:25;11.80;99.90
16384;DHT22;8301;51.440;6.610;2023-11-19T00:13:53;11.80;99.90
16384;DHT22;8301;51.440;6.610;2023-11-19T00:16:19;11.80;99.90
16384;DHT22;8301;51.440;6.610;2023-11-19T00:18:46;11.80;99.90
16384;DHT22;8301;51.440;6.610;2023-11-19T00:21:13;11.90;99.90
16384;DHT22;8301;51.440;6.610;2023-11-19T00:23:40;11.90;99.90
16384;DHT22;8301;51.440;6.610;2023-11-19T00:26:07;11.90;99.90
16384;DHT22;8301;51.440;6.610;2023-11-19T00:28:33;12.00;99.90
16384;DHT22;8301;51.440;6.610;2023-11-19T00:31:02;12.00;99.90
16384;DHT22;8301;51.440;6.610;2023-11-19T00:33:29;12.00;99.90
16384;DHT22;8301;51.440;6.610;2023-11-19T00:35:57;12.00;99.90
16384;DHT22;8301;51.440;6.610;2023-11-19T00:38:23;12.10;99.90
16384;DHT22;8301;51.440;6.610;2023-11-19T00:40:50;12.10;99.90
16384;DHT22;8301;51.440;6.610;2023-11-19T00:43:17;12.20;99.90
16384;DHT22;8301;51.440;6.610;2023-11-19T00:45:46;12.20;99.90
16384;DHT22;8301;51.440;6.610;2023-11-19T00:48:13;12.20;99.90
16384;DHT22;8301;51.440;6.610;2023-11-19T00:50:39;12.20;99.90
16384;DHT22;8301;51.440;6.610;2023-11-19T00:53:08;12.20;99.90
16384;DHT22;8301;51.440;6.610;2023-11-19T00:55:35;12.20;99.90
16384;DHT22;8301;51.440;6.610;2023-11-19T00:58:01;12.10;99.90
16384;DHT22;8301;51.440;6.610;2023-11-19T01:00:30;12.20;99.90
16384;DHT22;8301;51.440;6.610;2023-11-19T01:02:59;12.20;99.90
16384;DHT22;8301;51.440;6.610;2023-11-19T01:05:26;12.20;99.90
16384;DHT22;8301;51.440;6.610;2023-11-19T01:07:54;12.30;99.90
16384;DHT22;8301;51.440;6.610;2023-11-19T01:10:21;12.20;99.90
16384;DHT22;8301;51.440;6.610;2023-11-19T01:12:48;12.30;99.90
16384;DHT22;8301;51.440;6.610;2023-11-19T01:15:15;12.30;99.90
16384;DHT22;8301;51.440;6.610;2023-11-19T01:17:44;12.30;99.90
16384;DHT22;8301;51.440;6.610;2023-11-19T01:20:11;12.20;99.90
16384;DHT22;8301;51.440;6.610;2023-11-19T01:22:39;12.30;99.90
16384;DHT22;8301;51.440;6.610;2023-11-19T01:25:06;12.30;99.90
16384;DHT22;8301;51.440;6.610;2023-11-19T01:27:33;12.30;99.90
16384;DHT22;8301;51.440;6.610;2023-11-19T01:30:04;12.20;99.90
16384;DHT22;8301;51.440;6.610;2023-11-19T01:32:32;12.20;99.90
16384;DHT22;8301;51.440;6.610;2023-11-19T01:34:58;12.20;99.90
16384;DHT22;8301;51.440;6.610;2023-11-19T01:37:25;12.20;99.90
16384;DHT22;8301;51.440;6.610;2023-11-19T01:39:52;12.20;99.90
16384;DHT22;8301;51.440;6.610;2023-11-19T01:42:19;12.20;99.90
16384;DHT22;8301;51.440;6.610;2023-11-19T01:44:57;12.20;99.90
16384;DHT22;8301;51.440;6.610;2023-11-19T01:47:23;12.30;99.90
16384;DHT22;8301;51.440;6.610;2023-11-19T01:49:51;12.30;99.90
16384;DHT22;8301;51.440;6.610;2023-11-19T01:52:20;12.30;99.90
16384;DHT22;8301;51.440;6.610;2023-11-19T01:54:47;12.30;99.90
16384;DHT22;8301;51.440;6.610;2023-11-19T01:57:14;12.40;99.90
16384;DHT22;8301;51.440;6.610;2023-11-19T01:59:42;12.40;99.90
16384;DHT22;8301;51.440;6.610;2023-11-19T02:02:11;12.40;99.90
16384;DHT22;8301;51.440;6.610;2023-11-19T02:04:38;12.40;99.90
16384;DHT22;8301;51.440;6.610;2023-11-19T02:07:06;12.40;99.90
16384;DHT22;8301;51.440;6.610;2023-11-19T02:09:34;12.30;99.90
16384;DHT22;8301;51.440;6.610;2023-11-19T02:12:01;12.40;99.90
16384;DHT22;8301;51.440;6.610;2023-11-19T02:14:30;12.40;99.90
16384;DHT22;8301;51.440;6.610;2023-11-19T02:16:57;12.40;99.90
16384;DHT22;8301;51.440;6.610;2023-11-19T02:19:26;12.30;99.90
16384;DHT22;8301;51.440;6.610;2023-11-19T02:21:55;12.30;99.90
16384;DHT22;8301;51.440;6.610;2023-11-19T02:24:26;12.30;99.90
16384;DHT22;8301;51.440;6.610;2023-11-19T02:26:52;12.30;99.90
16384;DHT22;8301;51.440;6.610;2023-11-19T02:29:18;12.30;99.90
16384;DHT22;8301;51.440;6.610;2023-11-19T02:31:47;12.40;99.90
16384;DHT22;8301;51.440;6.610;2023-11-19T02:34:16;12.40;99.90
16384;DHT22;8301;51.440;6.610;2023-11-19T02:36:42;12.40;99.90
16384;DHT22;8301;51.440;6.610;2023-11-19T02:39:09;12.50;99.90
16384;DHT22;8301;51.440;6.610;2023-11-19T02:41:40;12.50;99.90
16384;DHT22;8301;51.440;6.610;2023-11-19T02:44:08;12.50;99.90
16384;DHT22;8301;51.440;6.610;2023-11-19T02:46:35;12.50;99.90
16384;DHT22;8301;51.440;6.610;2023-11-19T02:49:02;12.50;99.90
16384;DHT22;8301;51.440;6.610;2023-11-19T02:51:29;12.60;99.90
16384;DHT22;8301;51.440;6.610;2023-11-19T02:53:58;12.60;99.90
16384;DHT22;8301;51.440;6.610;2023-11-19T02:56:26;12.60;99.90
16384;DHT22;8301;51.440;6.610;2023-11-19T02:59:02;12.60;99.90
16384;DHT22;8301;51.440;6.610;2023-11-19T03:01:23;12.60;99.90
16384;DHT22;8301;51.440;6.610;2023-11-19T03:03:52;12.60;99.90
16384;DHT22;8301;51.440;6.610;2023-11-19T03:06:21;12.60;99.90
16384;DHT22;8301;51.440;6.610;2023-11-19T03:08:49;12.60;99.90
16384;DHT22;8301;51.440;6.610;2023-11-19T03:11:16;12.60;99.90
16384;DHT22;8301;51.440;6.610;2023-11-19T03:13:43;12.50;99.90
16384;DHT22;8301;51.440;6.610;2023-11-19T03:16:09;12.50;99.90
16384;DHT22;8301;51.440;6.610;2023-11-19T03:18:38;12.40;99.90
16384;DHT22;8301;51.440;6.610;2023-11-19T03:21:07;12.40;99.90
16384;DHT22;8301;51.440;6.610;2023-11-19T03:23:34;12.30;99.90
16384;DHT22;8301;51.440;6.610;2023-11-19T03:26:04;12.30;99.90
16384;DHT22;8301;51.440;6.610;2023-11-19T03:28:31;12.20;99.90
16384;DHT22;8301;51.440;6.610;2023-11-19T03:31:00;12.20;99.90
16384;DHT22;8301;51.440;6.610;2023-11-19T03:33:26;12.20;99.90
16384;DHT22;8301;51.440;6.610;2023-11-19T03:35:54;12.20;99.90
16384;DHT22;8301;51.440;6.610;2023-11-19T03:38:22;12.10;99.90
16384;DHT22;8301;51.440;6.610;2023-11-19T03:40:50;12.00;99.90
16384;DHT22;8301;51.440;6.610;2023-11-19T03:43:17;12.00;99.90
16384;DHT22;8301;51.440;6.610;2023-11-19T03:45:45;12.00;99.90
16384;DHT22;8301;51.440;6.610;2023-11-19T03:48:14;11.90;99.90
16384;DHT22;8301;51.440;6.610;2023-11-19T03:50:48;11.90;99.90
16384;DHT22;8301;51.440;6.610;2023-11-19T03:53:15;12.00;99.90
16384;DHT22;8301;51.440;6.610;2023-11-19T03:55:42;11.90;99.90
16384;DHT22;8301;51.440;6.610;2023-11-19T03:58:09;11.90;99.90
16384;DHT22;8301;51.440;6.610;2023-11-19T04:00:36;11.90;99.90
16384;DHT22;8301;51.440;6.610;2023-11-19T04:03:03;11.90;99.90
16384;DHT22;8301;51.440;6.610;2023-11-19T04:05:35;11.90;99.90
16384;DHT22;8301;51.440;6.610;2023-11-19T04:07:59;11.80;99.90
16384;DHT22;8301;51.440;6.610;2023-11-19T04:10:27;11.90;99.90
16384;DHT22;8301;51.440;6.610;2023-11-19T04:12:59;11.80;99.90
16384;DHT22;8301;51.440;6.610;2023-11-19T04:15:26;11.80;99.90
16384;DHT22;8301;51.440;6.610;2023-11-19T04:17:53;11.80;99.90
16384;DHT22;8301;51.440;6.610;2023-11-19T04:20:20;11.80;99.90
16384;DHT22;8301;51.440;6.610;2023-11-19T04:22:47;11.90;99.90
16384;DHT22;8301;51.440;6.610;2023-11-19T04:25:14;11.90;99.90
16384;DHT22;8301;51.440;6.610;2023-11-19T04:27:42;11.90;99.90
16384;DHT22;8301;51.440;6.610;2023-11-19T04:30:09;11.90;99.90
16384;DHT22;8301;51.440;6.610;2023-11-19T04:32:37;12.00;99.90
16384;DHT22;8301;51.440;6.610;2023-11-19T04:35:04;12.00;99.90
16384;DHT22;8301;51.440;6.610;2023-11-19T04:37:31;11.90;99.90
16384;DHT22;8301;51.440;6.610;2023-11-19T04:39:57;11.90;99.90
16384;DHT22;8301;51.440;6.610;2023-11-19T04:42:25;11.90;99.90
16384;DHT22;8301;51.440;6.610;2023-11-19T04:44:52;12.00;99.90
16384;DHT22;8301;51.440;6.610;2023-11-19T04:47:19;12.00;99.90
16384;DHT22;8301;51.440;6.610;2023-11-19T04:49:46;12.00;99.90
16384;DHT22;8301;51.440;6.610;2023-11-19T04:52:12;12.00;99.90
16384;DHT22;8301;51.440;6.610;2023-11-19T04:54:43;12.00;99.90
16384;DHT22;8301;51.440;6.610;2023-11-19T04:57:10;12.00;99.90
16384;DHT22;8301;51.440;6.610;2023-11-19T04:59:37;12.00;99.90
16384;DHT22;8301;51.440;6.610;2023-11-19T05:02:04;12.00;99.90
16384;DHT22;8301;51.440;6.610;2023-11-19T05:04:31;12.00;99.90
16384;DHT22;8301;51.440;6.610;2023-11-19T05:06:58;12.00;99.90
16384;DHT22;8301;51.440;6.610;2023-11-19T05:09:25;11.90;99.90
16384;DHT22;8301;51.440;6.610;2023-11-19T05:11:51;11.90;99.90
16384;DHT22;8301;51.440;6.610;2023-11-19T05:14:21;11.80;99.90
16384;DHT22;8301;51.440;6.610;2023-11-19T05:16:50;11.90;99.90
16384;DHT22;8301;51.440;6.610;2023-11-19T05:19:18;11.80;99.90
16384;DHT22;8301;51.440;6.610;2023-11-19T05:21:48;11.80;99.90
16384;DHT22;8301;51.440;6.610;2023-11-19T05:24:16;11.80;99.90
16384;DHT22;8301;51.440;6.610;2023-11-19T05:26:43;11.90;99.90
16384;DHT22;8301;51.440;6.610;2023-11-19T05:29:10;11.90;99.90
16384;DHT22;8301;51.440;6.610;2023-11-19T05:31:37;11.90;99.90
16384;DHT22;8301;51.440;6.610;2023-11-19T05:34:04;12.00;99.90
16384;DHT22;8301;51.440;6.610;2023-11-19T05:36:30;12.00;99.90
16384;DHT22;8301;51.440;6.610;2023-11-19T05:38:57;12.00;99.90
16384;DHT22;8301;51.440;6.610;2023-11-19T05:41:24;11.90;99.90
16384;DHT22;8301;51.440;6.610;2023-11-19T05:43:51;11.90;99.90
16384;DHT22;8301;51.440;6.610;2023-11-19T05:46:18;11.90;99.90
16384;DHT22;8301;51.440;6.610;2023-11-19T05:48:45;11.80;99.90
16384;DHT22;8301;51.440;6.610;2023-11-19T05:51:12;11.80;99.90
16384;DHT22;8301;51.440;6.610;2023-11-19T05:53:41;11.80;99.90
16384;DHT22;8301;51.440;6.610;2023-11-19T05:56:08;11.80;99.90
16384;DHT22;8301;51.440;6.610;2023-11-19T05:58:35;11.90;99.90
16384;DHT22;8301;51.440;6.610;2023-11-19T06:01:03;11.90;99.90
16384;DHT22;8301;51.440;6.610;2023-11-19T06:03:33;11.80;99.90
16384;DHT22;8301;51.440;6.610;2023-11-19T06:05:59;11.80;99.90
16384;DHT22;8301;51.440;6.610;2023-11-19T06:08:26;11.70;99.90
16384;DHT22;8301;51.440;6.610;2023-11-19T06:10:53;11.70;99.90
16384;DHT22;8301;51.440;6.610;2023-11-19T06:13:20;11.60;99.90
16384;DHT22;8301;51.440;6.610;2023-11-19T06:15:47;11.70;99.90
16384;DHT22;8301;51.440;6.610;2023-11-19T06:18:14;11.60;99.90
16384;DHT22;8301;51.440;6.610;2023-11-19T06:20:41;11.60;99.90
16384;DHT22;8301;51.440;6.610;2023-11-19T06:23:08;11.60;99.90
16384;DHT22;8301;51.440;6.610;2023-11-19T06:25:35;11.60;99.90
16384;DHT22;8301;51.440;6.610;2023-11-19T06:28:01;11.60;99.90
16384;DHT22;8301;51.440;6.610;2023-11-19T06:30:28;11.60;99.90
16384;DHT22;8301;51.440;6.610;2023-11-19T06:32:56;11.50;99.90
16384;DHT22;8301;51.440;6.610;2023-11-19T06:35:23;11.60;99.90
16384;DHT22;8301;51.440;6.610;2023-11-19T06:37:50;11.50;99.90
16384;DHT22;8301;51.440;6.610;2023-11-19T06:40:17;11.50;99.90
16384;DHT22;8301;51.440;6.610;2023-11-19T06:42:44;11.60;99.90
16384;DHT22;8301;51.440;6.610;2023-11-19T06:45:10;11.50;99.90
16384;DHT22;8301;51.440;6.610;2023-11-19T06:47:39;11.40;99.90
16384;DHT22;8301;51.440;6.610;2023-11-19T06:50:06;11.50;99.90
16384;DHT22;8301;51.440;6.610;2023-11-19T06:52:33;11.40;99.90
16384;DHT22;8301;51.440;6.610;2023-11-19T06:55:00;11.40;99.90
16384;DHT22;8301;51.440;6.610;2023-11-19T06:57:27;11.40;99.90
16384;DHT22;8301;51.440;6.610;2023-11-19T06:59:55;11.40;99.90
16384;DHT22;8301;51.440;6.610;2023-11-19T07:02:22;11.30;99.90
16384;DHT22;8301;51.440;6.610;2023-11-19T07:04:55;11.30;99.90
16384;DHT22;8301;51.440;6.610;2023-11-19T07:07:20;11.30;99.90
16384;DHT22;8301;51.440;6.610;2023-11-19T07:09:58;11.40;99.90
16384;DHT22;8301;51.440;6.610;2023-11-19T07:12:25;11.40;99.90
16384;DHT22;8301;51.440;6.610;2023-11-19T07:14:57;11.30;99.90
16384;DHT22;8301;51.440;6.610;2023-11-19T07:19:54;11.20;99.90
16384;DHT22;8301;51.440;6.610;2023-11-19T07:22:29;11.20;99.90
16384;DHT22;8301;51.440;6.610;2023-11-19T07:25:02;11.20;99.90
16384;DHT22;8301;51.440;6.610;2023-11-19T07:29:57;11.10;99.90
16384;DHT22;8301;51.440;6.610;2023-11-19T07:32:32;11.10;99.90
16384;DHT22;8301;51.440;6.610;2023-11-19T07:35:01;11.10;99.90
16384;DHT22;8301;51.440;6.610;2023-11-19T07:37:32;11.20;99.90
16384;DHT22;8301;51.440;6.610;2023-11-19T07:39:59;11.20;99.90
16384;DHT22;8301;51.440;6.610;2023-11-19T07:42:32;11.20;99.90
16384;DHT22;8301;51.440;6.610;2023-11-19T07:47:31;11.10;99.90
16384;DHT22;8301;51.440;6.610;2023-11-19T07:49:57;11.10;99.90
16384;DHT22;8301;51.440;6.610;2023-11-19T07:52:29;11.10;99.90
16384;DHT22;8301;51.440;6.610;2023-11-19T07:54:57;11.10;99.90
16384;DHT22;8301;51.440;6.610;2023-11-19T07:57:25;11.20;99.90
16384;DHT22;8301;51.440;6.610;2023-11-19T07:59:57;11.30;99.90
16384;DHT22;8301;51.440;6.610;2023-11-19T08:02:24;11.30;99.90
16384;DHT22;8301;51.440;6.610;2023-11-19T08:04:51;11.40;99.90
16384;DHT22;8301;51.440;6.610;2023-11-19T08:07:19;11.50;99.90
16384;DHT22;8301;51.440;6.610;2023-11-19T08:09:48;11.50;99.90
16384;DHT22;8301;51.440;6.610;2023-11-19T08:12:15;11.50;99.90
16384;DHT22;8301;51.440;6.610;2023-11-19T08:14:47;11.60;99.90
16384;DHT22;8301;51.440;6.610;2023-11-19T08:17:11;11.60;99.90
16384;DHT22;8301;51.440;6.610;2023-11-19T08:19:43;11.50;99.90
16384;DHT22;8301;51.440;6.610;2023-11-19T08:22:08;11.40;99.90
16384;DHT22;8301;51.440;6.610;2023-11-19T08:24:35;11.50;99.90
16384;DHT22;8301;51.440;6.610;2023-11-19T08:27:04;11.50;99.90
16384;DHT22;8301;51.440;6.610;2023-11-19T08:29:32;11.50;99.90
16384;DHT22;8301;51.440;6.610;2023-11-19T08:31:59;11.60;99.90
16384;DHT22;8301;51.440;6.610;2023-11-19T08:34:27;11.80;99.90
16384;DHT22;8301;51.440;6.610;2023-11-19T08:37:01;11.90;99.90
16384;DHT22;8301;51.440;6.610;2023-11-19T08:39:25;11.90;99.90
16384;DHT22;8301;51.440;6.610;2023-11-19T08:41:52;12.20;99.90
16384;DHT22;8301;51.440;6.610;2023-11-19T08:44:19;12.20;99.90
16384;DHT22;8301;51.440;6.610;2023-11-19T08:46:46;12.20;99.90
16384;DHT22;8301;51.440;6.610;2023-11-19T08:49:13;12.30;99.90
16384;DHT22;8301;51.440;6.610;2023-11-19T08:51:40;12.40;99.90
16384;DHT22;8301;51.440;6.610;2023-11-19T08:54:07;12.50;99.90
16384;DHT22;8301;51.440;6.610;2023-11-19T08:56:34;12.70;99.90
16384;DHT22;8301;51.440;6.610;2023-11-19T08:59:01;12.60;99.90
16384;DHT22;8301;51.440;6.610;2023-11-19T09:01:28;12.40;99.90
16384;DHT22;8301;51.440;6.610;2023-11-19T09:03:59;12.30;99.90
16384;DHT22;8301;51.440;6.610;2023-11-19T09:06:25;12.30;99.90
16384;DHT22;8301;51.440;6.610;2023-11-19T09:08:59;12.30;99.90
16384;DHT22;8301;51.440;6.610;2023-11-19T09:11:26;12.30;99.90
16384;DHT22;8301;51.440;6.610;2023-11-19T09:13:57;12.40;99.90
16384;DHT22;8301;51.440;6.610;2023-11-19T09:16:23;12.40;99.90
16384;DHT22;8301;51.440;6.610;2023-11-19T09:18:51;12.30;99.90
16384;DHT22;8301;51.440;6.610;2023-11-19T09:21:25;12.30;99.90
16384;DHT22;8301;51.440;6.610;2023-11-19T09:23:51;12.30;99.90
16384;DHT22;8301;51.440;6.610;2023-11-19T09:26:19;12.40;99.90
16384;DHT22;8301;51.440;6.610;2023-11-19T09:28:46;12.40;99.90
16384;DHT22;8301;51.440;6.610;2023-11-19T09:31:18;12.30;99.90
16384;DHT22;8301;51.440;6.610;2023-11-19T09:33:42;12.30;99.90
16384;DHT22;8301;51.440;6.610;2023-11-19T09:36:08;12.40;99.90
16384;DHT22;8301;51.440;6.610;2023-11-19T09:38:37;12.50;99.90
16384;DHT22;8301;51.440;6.610;2023-11-19T09:41:04;12.50;99.90
16384;DHT22;8301;51.440;6.610;2023-11-19T09:43:33;12.60;99.90
16384;DHT22;8301;51.440;6.610;2023-11-19T09:46:00;12.70;99.90
16384;DHT22;8301;51.440;6.610;2023-11-19T09:48:30;12.80;99.90
16384;DHT22;8301;51.440;6.610;2023-11-19T09:50:57;12.80;99.90
16384;DHT22;8301;51.440;6.610;2023-11-19T09:53:24;12.70;99.90
16384;DHT22;8301;51.440;6.610;2023-11-19T09:55:51;12.80;99.90
16384;DHT22;8301;51.440;6.610;2023-11-19T09:58:21;12.90;99.90
16384;DHT22;8301;51.440;6.610;2023-11-19T10:03:32;12.90;99.90
16384;DHT22;8301;51.440;6.610;2023-11-19T10:06:00;12.90;99.90
16384;DHT22;8301;51.440;6.610;2023-11-19T10:08:28;12.90;99.90
16384;DHT22;8301;51.440;6.610;2023-11-19T10:10:55;12.90;99.90
16384;DHT22;8301;51.440;6.610;2023-11-19T10:13:28;12.90;99.90
16384;DHT22;8301;51.440;6.610;2023-11-19T10:15:56;12.90;99.90
16384;DHT22;8301;51.440;6.610;2023-11-19T10:26:30;13.00;99.90
16384;DHT22;8301;51.440;6.610;2023-11-19T10:28:59;13.20;99.90
16384;DHT22;8301;51.440;6.610;2023-11-19T10:31:27;13.30;99.90
16384;DHT22;8301;51.440;6.610;2023-11-19T10:33:55;13.50;99.90
16384;DHT22;8301;51.440;6.610;2023-11-19T10:36:36;13.50;99.90
16384;DHT22;8301;51.440;6.610;2023-11-19T10:38:53;13.60;99.90
16384;DHT22;8301;51.440;6.610;2023-11-19T10:41:29;13.60;99.90
16384;DHT22;8301;51.440;6.610;2023-11-19T10:43:57;13.60;99.90
16384;DHT22;8301;51.440;6.610;2023-11-19T10:46:26;13.60;99.90
16384;DHT22;8301;51.440;6.610;2023-11-19T10:48:52;13.70;99.90
16384;DHT22;8301;51.440;6.610;2023-11-19T10:51:22;13.80;99.90
16384;DHT22;8301;51.440;6.610;2023-11-19T10:53:49;13.70;99.90
16384;DHT22;8301;51.440;6.610;2023-11-19T10:56:22;13.80;99.90
16384;DHT22;8301;51.440;6.610;2023-11-19T10:58:51;13.90;1.00
16384;DHT22;8301;51.440;6.610;2023-11-19T11:01:21;14.00;18.30
16384;DHT22;8301;51.440;6.610;2023-11-19T11:03:50;14.10;1.00
16384;DHT22;8301;51.440;6.610;2023-11-19T11:06:19;14.10;1.00
16384;DHT22;8301;51.440;6.610;2023-11-19T11:08:46;13.90;1.00
16384;DHT22;8301;51.440;6.610;2023-11-19T11:11:14;13.90;1.00
16384;DHT22;8301;51.440;6.610;2023-11-19T11:13:43;13.90;1.00
16384;DHT22;8301;51.440;6.610;2023-11-19T11:16:11;13.90;1.00
16384;DHT22;8301;51.440;6.610;2023-11-19T11:18:39;13.80;1.00
16384;DHT22;8301;51.440;6.610;2023-11-19T11:21:09;13.70;1.00
16384;DHT22;8301;51.440;6.610;2023-11-19T11:23:37;13.60;1.00
16384;DHT22;8301;51.440;6.610;2023-11-19T11:28:41;13.60;1.00
16384;DHT22;8301;51.440;6.610;2023-11-19T11:31:20;13.70;1.00
16384;DHT22;8301;51.440;6.610;2023-11-19T11:33:41;13.70;1.00
16384;DHT22;8301;51.440;6.610;2023-11-19T11:36:09;13.70;1.00
16384;DHT22;8301;51.440;6.610;2023-11-19T11:38:36;13.80;1.00
16384;DHT22;8301;51.440;6.610;2023-11-19T11:41:16;13.70;1.00
16384;DHT22;8301;51.440;6.610;2023-11-19T11:43:47;13.70;1.00
16384;DHT22;8301;51.440;6.610;2023-11-19T11:47:00;13.60;1.00
16384;DHT22;8301;51.440;6.610;2023-11-19T11:48:46;13.60;1.00
16384;DHT22;8301;51.440;6.610;2023-11-19T11:51:12;13.70;1.00
16384;DHT22;8301;51.440;6.610;2023-11-19T11:53:39;13.60;1.00
16384;DHT22;8301;51.440;6.610;2023-11-19T11:56:07;13.70;1.00
16384;DHT22;8301;51.440;6.610;2023-11-19T11:58:34;13.70;1.00
16384;DHT22;8301;51.440;6.610;2023-11-19T12:01:03;13.60;1.00
16384;DHT22;8301;51.440;6.610;2023-11-19T12:03:37;13.70;1.00
16384;DHT22;8301;51.440;6.610;2023-11-19T12:06:04;13.80;1.00
16384;DHT22;8301;51.440;6.610;2023-11-19T12:08:31;13.80;1.00
16384;DHT22;8301;51.440;6.610;2023-11-19T12:11:11;13.70;1.00
16384;DHT22;8301;51.440;6.610;2023-11-19T12:13:54;13.70;1.00
16384;DHT22;8301;51.440;6.610;2023-11-19T12:16:23;13.70;1.00
16384;DHT22;8301;51.440;6.610;2023-11-19T12:18:51;13.80;1.00
16384;DHT22;8301;51.440;6.610;2023-11-19T12:21:29;13.70;1.00
16384;DHT22;8301;51.440;6.610;2023-11-19T12:23:56;13.70;1.00
16384;DHT22;8301;51.440;6.610;2023-11-19T12:26:32;13.60;1.00
16384;DHT22;8301;51.440;6.610;2023-11-19T12:29:04;13.50;13.40
16384;DHT22;8301;51.440;6.610;2023-11-19T12:31:30;13.20;99.90
16384;DHT22;8301;51.440;6.610;2023-11-19T12:34:04;13.10;1.00
16384;DHT22;8301;51.440;6.610;2023-11-19T12:36:26;12.90;1.00
16384;DHT22;8301;51.440;6.610;2023-11-19T12:38:55;12.80;1.00
16384;DHT22;8301;51.440;6.610;2023-11-19T12:41:24;12.80;99.90
16384;DHT22;8301;51.440;6.610;2023-11-19T12:43:51;12.80;1.00
16384;DHT22;8301;51.440;6.610;2023-11-19T12:46:21;12.80;1.00
16384;DHT22;8301;51.440;6.610;2023-11-19T12:48:50;12.80;1.00
16384;DHT22;8301;51.440;6.610;2023-11-19T12:51:17;12.70;99.90
16384;DHT22;8301;51.440;6.610;2023-11-19T12:53:48;12.60;99.90
16384;DHT22;8301;51.440;6.610;2023-11-19T12:56:23;12.60;1.00
16384;DHT22;8301;51.440;6.610;2023-11-19T12:58:50;12.60;1.00
16384;DHT22;8301;51.440;6.610;2023-11-19T13:01:20;12.60;1.00
16384;DHT22;8301;51.440;6.610;2023-11-19T13:03:47;12.60;1.00
16384;DHT22;8301;51.440;6.610;2023-11-19T13:06:17;12.60;99.90
16384;DHT22;8301;51.440;6.610;2023-11-19T13:08:46;12.60;1.00
16384;DHT22;8301;51.440;6.610;2023-11-19T13:11:15;12.60;98.10
16384;DHT22;8301;51.440;6.610;2023-11-19T13:13:59;12.50;99.90
16384;DHT22;8301;51.440;6.610;2023-11-19T13:16:27;12.40;1.00
16384;DHT22;8301;51.440;6.610;2023-11-19T13:18:54;12.40;1.00
16384;DHT22;8301;51.440;6.610;2023-11-19T13:21:21;12.30;1.00
16384;DHT22;8301;51.440;6.610;2023-11-19T13:23:48;12.20;99.90
16384;DHT22;8301;51.440;6.610;2023-11-19T13:26:15;12.30;1.00
16384;DHT22;8301;51.440;6.610;2023-11-19T13:28:42;12.30;1.00
16384;DHT22;8301;51.440;6.610;2023-11-19T13:31:08;12.40;1.00
16384;DHT22;8301;51.440;6.610;2023-11-19T13:33:36;12.40;99.90
16384;DHT22;8301;51.440;6.610;2023-11-19T13:36:03;12.40;99.90
16384;DHT22;8301;51.440;6.610;2023-11-19T13:38:32;12.40;1.00
16384;DHT22;8301;51.440;6.610;2023-11-19T13:40:59;12.40;1.00
16384;DHT22;8301;51.440;6.610;2023-11-19T13:43:26;12.50;1.00
16384;DHT22;8301;51.440;6.610;2023-11-19T13:45:55;12.50;1.00
16384;DHT22;8301;51.440;6.610;2023-11-19T13:48:22;12.40;11.80
16384;DHT22;8301;51.440;6.610;2023-11-19T13:50:49;12.50;1.00
16384;DHT22;8301;51.440;6.610;2023-11-19T13:53:16;12.50;1.00
16384;DHT22;8301;51.440;6.610;2023-11-19T13:55:43;12.50;1.00
16384;DHT22;8301;51.440;6.610;2023-11-19T13:58:10;12.60;1.00
16384;DHT22;8301;51.440;6.610;2023-11-19T14:00:39;12.50;1.00
16384;DHT22;8301;51.440;6.610;2023-11-19T14:03:08;12.50;99.90
16384;DHT22;8301;51.440;6.610;2023-11-19T14:05:36;12.30;1.00
16384;DHT22;8301;51.440;6.610;2023-11-19T14:08:04;12.10;99.90
16384;DHT22;8301;51.440;6.610;2023-11-19T14:10:32;12.00;1.00
16384;DHT22;8301;51.440;6.610;2023-11-19T14:12:59;11.90;99.90
16384;DHT22;8301;51.440;6.610;2023-11-19T14:15:26;11.80;1.00
16384;DHT22;8301;51.440;6.610;2023-11-19T14:17:54;11.80;37.10
16384;DHT22;8301;51.440;6.610;2023-11-19T14:20:21;11.80;99.90
16384;DHT22;8301;51.440;6.610;2023-11-19T14:22:48;11.80;99.90
16384;DHT22;8301;51.440;6.610;2023-11-19T14:25:18;11.80;99.90
16384;DHT22;8301;51.440;6.610;2023-11-19T14:27:44;11.80;99.90
16384;DHT22;8301;51.440;6.610;2023-11-19T14:35:46;11.70;99.90
16384;DHT22;8301;51.440;6.610;2023-11-19T14:38:14;11.70;99.90
16384;DHT22;8301;51.440;6.610;2023-11-19T14:40:41;11.90;99.90
16384;DHT22;8301;51.440;6.610;2023-11-19T14:43:09;11.80;99.90
16384;DHT22;8301;51.440;6.610;2023-11-19T14:45:39;11.70;1.00
16384;DHT22;8301;51.440;6.610;2023-11-19T14:48:07;11.60;99.90
16384;DHT22;8301;51.440;6.610;2023-11-19T14:50:36;11.60;99.90
16384;DHT22;8301;51.440;6.610;2023-11-19T14:53:03;11.60;99.90
16384;DHT22;8301;51.440;6.610;2023-11-19T14:55:29;11.60;99.90
16384;DHT22;8301;51.440;6.610;2023-11-19T14:57:57;11.50;1.00
16384;DHT22;8301;51.440;6.610;2023-11-19T15:00:24;11.50;99.90
16384;DHT22;8301;51.440;6.610;2023-11-19T15:02:53;11.50;99.90
16384;DHT22;8301;51.440;6.610;2023-11-19T15:05:21;11.50;99.90
16384;DHT22;8301;51.440;6.610;2023-11-19T15:07:48;11.40;1.00
16384;DHT22;8301;51.440;6.610;2023-11-19T15:10:15;11.40;1.00
16384;DHT22;8301;51.440;6.610;2023-11-19T15:12:42;11.30;99.90
16384;DHT22;8301;51.440;6.610;2023-11-19T15:18:04;11.10;99.90
16384;DHT22;8301;51.440;6.610;2023-11-19T15:20:31;11.10;99.90
16384;DHT22;8301;51.440;6.610;2023-11-19T15:22:58;11.00;99.90
16384;DHT22;8301;51.440;6.610;2023-11-19T15:25:25;11.00;99.90
16384;DHT22;8301;51.440;6.610;2023-11-19T15:27:51;11.00;99.90
16384;DHT22;8301;51.440;6.610;2023-11-19T15:30:23;11.00;99.90
16384;DHT22;8301;51.440;6.610;2023-11-19T15:32:47;11.00;99.90
16384;DHT22;8301;51.440;6.610;2023-11-19T15:35:13;11.00;99.90
16384;DHT22;8301;51.440;6.610;2023-11-19T15:37:45;11.00;99.90
16384;DHT22;8301;51.440;6.610;2023-11-19T15:40:10;11.00;99.90
16384;DHT22;8301;51.440;6.610;2023-11-19T15:42:39;11.00;99.90
16384;DHT22;8301;51.440;6.610;2023-11-19T15:45:06;11.00;99.90
16384;DHT22;8301;51.440;6.610;2023-11-19T15:47:33;11.10;99.90
16384;DHT22;8301;51.440;6.610;2023-11-19T15:50:02;11.10;99.90
16384;DHT22;8301;51.440;6.610;2023-11-19T15:52:29;11.00;99.90
16384;DHT22;8301;51.440;6.610;2023-11-19T15:54:57;10.90;99.90
16384;DHT22;8301;51.440;6.610;2023-11-19T15:57:23;10.90;99.90
16384;DHT22;8301;51.440;6.610;2023-11-19T15:59:50;10.90;99.90
16384;DHT22;8301;51.440;6.610;2023-11-19T16:02:17;10.90;99.90
16384;DHT22;8301;51.440;6.610;2023-11-19T16:04:44;10.90;99.90
16384;DHT22;8301;51.440;6.610;2023-11-19T16:07:13;10.90;99.90
16384;DHT22;8301;51.440;6.610;2023-11-19T16:09:40;10.90;99.90
16384;DHT22;8301;51.440;6.610;2023-11-19T16:12:08;11.00;99.90
16384;DHT22;8301;51.440;6.610;2023-11-19T16:14:34;11.00;99.90
16384;DHT22;8301;51.440;6.610;2023-11-19T16:17:01;10.90;99.90
16384;DHT22;8301;51.440;6.610;2023-11-19T16:19:28;10.90;99.90
16384;DHT22;8301;51.440;6.610;2023-11-19T16:21:57;10.90;99.90
16384;DHT22;8301;51.440;6.610;2023-11-19T16:24:23;10.90;99.90